sensor_id;sensor_type;location;lat;lon;timestamp;pressure;altitude;pressure_sealevel;temperature;humidity
77871;BME280;67067;46.850;7.578;2023-07-22T00:00:49;95388.47;;;15.99;58.16
77871;BME280;67067;46.850;7.578;2023-07-22T00:01:50;95390.31;;;15.98;58.56
77871;BME280;67067;46.850;7.578;2023-07-22T00:02:52;95390.63;;;15.97;58.62
77871;BME280;67067;46.850;7.578;2023-07-22T00:03:54;95392.19;;;15.98;58.15
77871;BME280;67067;46.850;7.578;2023-07-22T00:04:55;95386.56;;;15.99;58.43
77871;BME280;67067;46.850;7.578;2023-07-22T00:06:06;95395.09;;;16.01;58.41
77871;BME280;67067;46.850;7.578;2023-07-22T00:07:08;95387.63;;;16.03;58.21
77871;BME280;67067;46.850;7.578;2023-07-22T00:08:10;95395.63;;;16.03;57.81
77871;BME280;67067;46.850;7.578;2023-07-22T00:09:16;95392.16;;;16.03;58.01
77871;BME280;67067;46.850;7.578;2023-07-22T00:10:18;95388.66;;;16.02;57.91
77871;BME280;67067;46.850;7.578;2023-07-22T00:11:20;95392.97;;;15.98;58.52
77871;BME280;67067;46.850;7.578;2023-07-22T00:12:21;95388.72;;;15.97;58.62
77871;BME280;67067;46.850;7.578;2023-07-22T00:13:27;95382.56;;;16.02;58.31
77871;BME280;67067;46.850;7.578;2023-07-22T00:14:28;95389.81;;;15.96;58.14
77871;BME280;67067;46.850;7.578;2023-07-22T00:15:30;95388.22;;;15.95;58.57
77871;BME280;67067;46.850;7.578;2023-07-22T00:16:32;95388.22;;;15.90;58.69
77871;BME280;67067;46.850;7.578;2023-07-22T00:17:33;95380.22;;;15.90;58.52
77871;BME280;67067;46.850;7.578;2023-07-22T00:18:35;95380.22;;;15.90;58.82
77871;BME280;67067;46.850;7.578;2023-07-22T00:19:37;95377.59;;;15.85;58.89
77871;BME280;67067;46.850;7.578;2023-07-22T00:20:39;95380.56;;;15.83;58.74
77871;BME280;67067;46.850;7.578;2023-07-22T00:21:41;95383.28;;;15.78;58.77
77871;BME280;67067;46.850;7.578;2023-07-22T00:22:42;95382.78;;;15.76;59.02
77871;BME280;67067;46.850;7.578;2023-07-22T00:23:44;95383.84;;;15.75;58.55
77871;BME280;67067;46.850;7.578;2023-07-22T00:24:47;95383.13;;;15.64;59.72
77871;BME280;67067;46.850;7.578;2023-07-22T00:25:50;95382.06;;;15.65;59.54
77871;BME280;67067;46.850;7.578;2023-07-22T00:26:52;95384.72;;;15.65;59.53
77871;BME280;67067;46.850;7.578;2023-07-22T00:28:55;95386.03;;;15.68;59.26
77871;BME280;67067;46.850;7.578;2023-07-22T00:29:57;95384.72;;;15.65;59.58
77871;BME280;67067;46.850;7.578;2023-07-22T00:30:58;95387.66;;;15.64;59.54
77871;BME280;67067;46.850;7.578;2023-07-22T00:32:07;95389.56;;;15.63;59.39
77871;BME280;67067;46.850;7.578;2023-07-22T00:33:09;95382.38;;;15.58;59.60
77871;BME280;67067;46.850;7.578;2023-07-22T00:34:14;95387.44;;;15.60;59.50
77871;BME280;67067;46.850;7.578;2023-07-22T00:35:16;95383.47;;;15.57;59.60
77871;BME280;67067;46.850;7.578;2023-07-22T00:36:18;95374.94;;;15.55;59.58
77871;BME280;67067;46.850;7.578;2023-07-22T00:37:19;95375.19;;;15.59;59.61
77871;BME280;67067;46.850;7.578;2023-07-22T00:38:21;95371.66;;;15.64;59.21
77871;BME280;67067;46.850;7.578;2023-07-22T00:39:23;95373.25;;;15.65;59.41
77871;BME280;67067;46.850;7.578;2023-07-22T00:40:24;95360.72;;;15.65;59.36
77871;BME280;67067;46.850;7.578;2023-07-22T00:41:26;95365.25;;;15.65;59.40
77871;BME280;67067;46.850;7.578;2023-07-22T00:42:28;95370.59;;;15.65;59.30
77871;BME280;67067;46.850;7.578;2023-07-22T00:43:30;95372.47;;;15.64;59.26
77871;BME280;67067;46.850;7.578;2023-07-22T00:44:32;95369.84;;;15.59;59.27
77871;BME280;67067;46.850;7.578;2023-07-22T00:45:34;95380.06;;;15.52;59.64
77871;BME280;67067;46.850;7.578;2023-07-22T00:46:35;95373.16;;;15.45;60.07
77871;BME280;67067;46.850;7.578;2023-07-22T00:47:37;95373.94;;;15.46;59.56
77871;BME280;67067;46.850;7.578;2023-07-22T00:48:39;95364.03;;;15.52;59.41
77871;BME280;67067;46.850;7.578;2023-07-22T00:49:43;95362.16;;;15.52;59.31
77871;BME280;67067;46.850;7.578;2023-07-22T00:50:45;95364.56;;;15.54;59.28
77871;BME280;67067;46.850;7.578;2023-07-22T00:51:47;95361.91;;;15.54;59.48
77871;BME280;67067;46.850;7.578;2023-07-22T00:52:48;95359.03;;;15.45;59.60
77871;BME280;67067;46.850;7.578;2023-07-22T00:53:52;95359.84;;;15.45;59.60
77871;BME280;67067;46.850;7.578;2023-07-22T00:54:54;95360.34;;;15.48;59.52
77871;BME280;67067;46.850;7.578;2023-07-22T00:55:56;95359.03;;;15.45;59.51
77871;BME280;67067;46.850;7.578;2023-07-22T00:56:58;95357.94;;;15.46;59.63
77871;BME280;67067;46.850;7.578;2023-07-22T00:57:59;95355.78;;;15.48;59.33
77871;BME280;67067;46.850;7.578;2023-07-22T00:59:01;95357.69;;;15.48;59.51
77871;BME280;67067;46.850;7.578;2023-07-22T01:00:03;95358.75;;;15.46;59.15
77871;BME280;67067;46.850;7.578;2023-07-22T01:01:06;95365.38;;;15.49;59.62
77871;BME280;67067;46.850;7.578;2023-07-22T01:02:08;95359.78;;;15.51;59.39
77871;BME280;67067;46.850;7.578;2023-07-22T01:03:11;95358.19;;;15.50;59.63
77871;BME280;67067;46.850;7.578;2023-07-22T01:04:17;95359.75;;;15.56;59.43
77871;BME280;67067;46.850;7.578;2023-07-22T01:05:20;95354.16;;;15.52;59.56
77871;BME280;67067;46.850;7.578;2023-07-22T01:06:22;95359.22;;;15.54;59.29
77871;BME280;67067;46.850;7.578;2023-07-22T01:07:26;95358.94;;;15.55;59.13
77871;BME280;67067;46.850;7.578;2023-07-22T01:08:28;95360.53;;;15.56;59.40
77871;BME280;67067;46.850;7.578;2023-07-22T01:09:36;95360.25;;;15.58;59.17
77871;BME280;67067;46.850;7.578;2023-07-22T01:10:40;95358.38;;;15.58;59.42
77871;BME280;67067;46.850;7.578;2023-07-22T01:11:43;95356.00;;;15.57;59.28
77871;BME280;67067;46.850;7.578;2023-07-22T01:12:45;95363.50;;;15.55;59.36
77871;BME280;67067;46.850;7.578;2023-07-22T01:13:46;95361.38;;;15.52;59.22
77871;BME280;67067;46.850;7.578;2023-07-22T01:14:48;95364.03;;;15.52;59.32
77871;BME280;67067;46.850;7.578;2023-07-22T01:15:50;95366.72;;;15.52;59.25
77871;BME280;67067;46.850;7.578;2023-07-22T01:16:54;95369.38;;;15.52;59.56
77871;BME280;67067;46.850;7.578;2023-07-22T01:17:55;95373.13;;;15.51;59.48
77871;BME280;67067;46.850;7.578;2023-07-22T01:18:58;95370.47;;;15.51;59.33
77871;BME280;67067;46.850;7.578;2023-07-22T01:20:00;95373.16;;;15.45;59.50
77871;BME280;67067;46.850;7.578;2023-07-22T01:21:01;95374.75;;;15.46;59.51
77871;BME280;67067;46.850;7.578;2023-07-22T01:22:03;95374.25;;;15.44;59.68
77871;BME280;67067;46.850;7.578;2023-07-22T01:23:08;95363.84;;;15.43;59.41
77871;BME280;67067;46.850;7.578;2023-07-22T01:24:10;95367.31;;;15.43;59.41
77871;BME280;67067;46.850;7.578;2023-07-22T01:25:12;95370.78;;;15.44;59.39
77871;BME280;67067;46.850;7.578;2023-07-22T01:26:16;95374.81;;;15.41;59.52
77871;BME280;67067;46.850;7.578;2023-07-22T01:27:18;95373.44;;;15.44;59.26
77871;BME280;67067;46.850;7.578;2023-07-22T01:28:20;95363.84;;;15.43;59.35
77871;BME280;67067;46.850;7.578;2023-07-22T01:29:22;95369.47;;;15.41;59.59
77871;BME280;67067;46.850;7.578;2023-07-22T01:30:24;95381.22;;;15.40;59.58
77871;BME280;67067;46.850;7.578;2023-07-22T01:31:29;95374.81;;;15.41;59.47
77871;BME280;67067;46.850;7.578;2023-07-22T01:32:30;95368.41;;;15.42;59.38
77871;BME280;67067;46.850;7.578;2023-07-22T01:33:35;95368.91;;;15.44;59.09
77871;BME280;67067;46.850;7.578;2023-07-22T01:34:37;95367.84;;;15.45;59.28
77871;BME280;67067;46.850;7.578;2023-07-22T01:35:38;95363.03;;;15.48;59.21
77871;BME280;67067;46.850;7.578;2023-07-22T01:36:40;95364.59;;;15.49;59.22
77871;BME280;67067;46.850;7.578;2023-07-22T01:37:42;95368.34;;;15.48;59.40
77871;BME280;67067;46.850;7.578;2023-07-22T01:38:43;95366.19;;;15.50;59.17
77871;BME280;67067;46.850;7.578;2023-07-22T01:39:45;95360.88;;;15.50;59.20
77871;BME280;67067;46.850;7.578;2023-07-22T01:40:47;95360.31;;;15.53;58.97
77871;BME280;67067;46.850;7.578;2023-07-22T01:41:49;95358.16;;;15.55;58.95
77871;BME280;67067;46.850;7.578;2023-07-22T01:42:50;95362.94;;;15.58;58.98
77871;BME280;67067;46.850;7.578;2023-07-22T01:43:52;95360.78;;;15.60;58.76
77871;BME280;67067;46.850;7.578;2023-07-22T01:44:53;95362.38;;;15.61;58.79
77871;BME280;67067;46.850;7.578;2023-07-22T01:45:55;95366.09;;;15.60;58.60
77871;BME280;67067;46.850;7.578;2023-07-22T01:46:57;95371.44;;;15.60;58.77
77871;BME280;67067;46.850;7.578;2023-07-22T01:47:59;95366.09;;;15.60;58.44
77871;BME280;67067;46.850;7.578;2023-07-22T01:49:00;95370.63;;;15.59;58.48
77871;BME280;67067;46.850;7.578;2023-07-22T01:50:03;95368.25;;;15.58;58.61
77871;BME280;67067;46.850;7.578;2023-07-22T01:51:05;95367.97;;;15.59;58.71
77871;BME280;67067;46.850;7.578;2023-07-22T01:52:07;95362.94;;;15.58;58.61
77871;BME280;67067;46.850;7.578;2023-07-22T01:53:09;95364.50;;;15.59;58.56
77871;BME280;67067;46.850;7.578;2023-07-22T01:54:11;95366.09;;;15.60;58.63
77871;BME280;67067;46.850;7.578;2023-07-22T01:55:13;95359.69;;;15.61;58.51
77871;BME280;67067;46.850;7.578;2023-07-22T01:56:17;95361.56;;;15.60;58.62
77871;BME280;67067;46.850;7.578;2023-07-22T01:57:21;95363.44;;;15.60;58.67
77871;BME280;67067;46.850;7.578;2023-07-22T01:58:23;95359.97;;;15.59;58.78
77871;BME280;67067;46.850;7.578;2023-07-22T01:59:25;95362.38;;;15.61;58.81
77871;BME280;67067;46.850;7.578;2023-07-22T02:00:26;95360.22;;;15.63;58.52
77871;BME280;67067;46.850;7.578;2023-07-22T02:01:30;95349.53;;;15.63;58.30
77871;BME280;67067;46.850;7.578;2023-07-22T02:02:33;95346.34;;;15.61;58.24
77871;BME280;67067;46.850;7.578;2023-07-22T02:03:34;95351.97;;;15.59;58.13
77871;BME280;67067;46.850;7.578;2023-07-22T02:04:41;95339.44;;;15.60;58.26
77871;BME280;67067;46.850;7.578;2023-07-22T02:05:46;95338.91;;;15.58;57.91
77871;BME280;67067;46.850;7.578;2023-07-22T02:06:47;95346.41;;;15.56;58.17
77871;BME280;67067;46.850;7.578;2023-07-22T02:07:50;95342.72;;;15.52;58.40
77871;BME280;67067;46.850;7.578;2023-07-22T02:08:52;95341.38;;;15.49;58.21
77871;BME280;67067;46.850;7.578;2023-07-22T02:09:54;95341.16;;;15.45;58.11
77871;BME280;67067;46.850;7.578;2023-07-22T02:11:05;95343.59;;;15.42;58.17
77871;BME280;67067;46.850;7.578;2023-07-22T02:12:07;95347.31;;;15.41;57.90
77871;BME280;67067;46.850;7.578;2023-07-22T02:13:12;95344.16;;;15.39;57.93
77871;BME280;67067;46.850;7.578;2023-07-22T02:14:13;95347.09;;;15.37;58.02
77871;BME280;67067;46.850;7.578;2023-07-22T02:15:15;95343.91;;;15.35;57.95
77871;BME280;67067;46.850;7.578;2023-07-22T02:16:17;95347.94;;;15.32;57.98
77871;BME280;67067;46.850;7.578;2023-07-22T02:17:20;95346.59;;;15.30;58.23
77871;BME280;67067;46.850;7.578;2023-07-22T02:18:22;95350.34;;;15.29;58.12
77871;BME280;67067;46.850;7.578;2023-07-22T02:19:24;95348.00;;;15.22;58.32
77871;BME280;67067;46.850;7.578;2023-07-22T02:20:25;95346.16;;;15.17;58.26
77871;BME280;67067;46.850;7.578;2023-07-22T02:21:30;95348.63;;;15.03;58.71
77871;BME280;67067;46.850;7.578;2023-07-22T02:22:32;95353.72;;;15.00;58.66
77871;BME280;67067;46.850;7.578;2023-07-22T02:23:33;95337.75;;;15.00;58.66
77871;BME280;67067;46.850;7.578;2023-07-22T02:24:38;95346.81;;;14.99;58.70
77871;BME280;67067;46.850;7.578;2023-07-22T02:25:40;95352.13;;;14.99;58.72
77871;BME280;67067;46.850;7.578;2023-07-22T02:26:42;95340.66;;;14.98;58.37
77871;BME280;67067;46.850;7.578;2023-07-22T02:27:43;95346.00;;;14.98;58.21
77871;BME280;67067;46.850;7.578;2023-07-22T02:28:45;95341.22;;;14.95;58.29
77871;BME280;67067;46.850;7.578;2023-07-22T02:29:50;95344.22;;;14.88;58.54
77871;BME280;67067;46.850;7.578;2023-07-22T02:30:52;95344.72;;;14.91;58.12
77871;BME280;67067;46.850;7.578;2023-07-22T02:31:58;95347.66;;;14.89;58.28
77871;BME280;67067;46.850;7.578;2023-07-22T02:33:01;95339.97;;;14.87;58.16
77871;BME280;67067;46.850;7.578;2023-07-22T02:34:03;95342.09;;;14.85;58.25
77871;BME280;67067;46.850;7.578;2023-07-22T02:35:10;95346.41;;;14.81;58.13
77871;BME280;67067;46.850;7.578;2023-07-22T02:36:12;95348.53;;;14.79;58.45
77871;BME280;67067;46.850;7.578;2023-07-22T02:37:14;95342.16;;;14.75;58.42
77871;BME280;67067;46.850;7.578;2023-07-22T02:38:15;95345.09;;;14.73;58.36
77871;BME280;67067;46.850;7.578;2023-07-22T02:39:18;95339.78;;;14.73;58.35
77871;BME280;67067;46.850;7.578;2023-07-22T02:40:20;95338.19;;;14.72;58.28
77871;BME280;67067;46.850;7.578;2023-07-22T02:41:22;95333.91;;;14.71;58.24
77871;BME280;67067;46.850;7.578;2023-07-22T02:42:23;95338.19;;;14.72;58.16
77871;BME280;67067;46.850;7.578;2023-07-22T02:43:27;95341.13;;;14.71;58.10
77871;BME280;67067;46.850;7.578;2023-07-22T02:44:29;95340.06;;;14.72;58.13
77871;BME280;67067;46.850;7.578;2023-07-22T02:45:30;95351.78;;;14.71;58.20
77871;BME280;67067;46.850;7.578;2023-07-22T02:46:32;95344.06;;;14.69;58.10
77871;BME280;67067;46.850;7.578;2023-07-22T02:47:34;95339.28;;;14.66;58.02
77871;BME280;67067;46.850;7.578;2023-07-22T02:48:38;95340.63;;;14.64;58.05
77871;BME280;67067;46.850;7.578;2023-07-22T02:49:40;95336.34;;;14.63;58.36
77871;BME280;67067;46.850;7.578;2023-07-22T02:50:42;95346.50;;;14.60;58.30
77871;BME280;67067;46.850;7.578;2023-07-22T02:51:44;95344.91;;;14.59;58.50
77871;BME280;67067;46.850;7.578;2023-07-22T02:52:45;95345.72;;;14.60;58.47
77871;BME280;67067;46.850;7.578;2023-07-22T02:53:47;95338.78;;;14.59;58.24
77871;BME280;67067;46.850;7.578;2023-07-22T02:56:06;95343.84;;;14.55;58.12
77871;BME280;67067;46.850;7.578;2023-07-22T02:57:12;95346.81;;;14.54;58.24
77871;BME280;67067;46.850;7.578;2023-07-22T02:58:14;95341.47;;;14.54;58.32
77871;BME280;67067;46.850;7.578;2023-07-22T02:59:15;95349.19;;;14.55;58.16
77871;BME280;67067;46.850;7.578;2023-07-22T03:00:18;95353.47;;;14.51;58.30
77871;BME280;67067;46.850;7.578;2023-07-22T03:01:26;95355.06;;;14.52;58.06
77871;BME280;67067;46.850;7.578;2023-07-22T03:02:28;95358.56;;;14.48;58.36
77871;BME280;67067;46.850;7.578;2023-07-22T03:03:30;95354.81;;;14.49;58.12
77871;BME280;67067;46.850;7.578;2023-07-22T03:04:34;95354.31;;;14.47;58.14
77871;BME280;67067;46.850;7.578;2023-07-22T03:05:36;95354.31;;;14.47;58.19
77871;BME280;67067;46.850;7.578;2023-07-22T03:06:37;95348.19;;;14.41;58.13
77871;BME280;67067;46.850;7.578;2023-07-22T03:07:39;95352.22;;;14.38;58.21
77871;BME280;67067;46.850;7.578;2023-07-22T03:08:41;95354.06;;;14.38;58.25
77871;BME280;67067;46.850;7.578;2023-07-22T03:09:42;95358.88;;;14.30;58.42
77871;BME280;67067;46.850;7.578;2023-07-22T03:10:46;95355.69;;;14.28;58.47
77871;BME280;67067;46.850;7.578;2023-07-22T03:11:50;95344.22;;;14.28;58.41
77871;BME280;67067;46.850;7.578;2023-07-22T03:12:51;95347.94;;;14.27;58.39
77871;BME280;67067;46.850;7.578;2023-07-22T03:13:59;95354.63;;;14.24;58.40
77871;BME280;67067;46.850;7.578;2023-07-22T03:15:03;95347.19;;;14.21;58.45
77871;BME280;67067;46.850;7.578;2023-07-22T03:16:07;95347.75;;;14.13;58.71
77871;BME280;67067;46.850;7.578;2023-07-22T03:17:09;95342.94;;;14.15;58.79
77871;BME280;67067;46.850;7.578;2023-07-22T03:18:11;95350.38;;;14.18;58.58
77871;BME280;67067;46.850;7.578;2023-07-22T03:19:13;95345.59;;;14.15;58.57
77871;BME280;67067;46.850;7.578;2023-07-22T03:20:17;95347.44;;;14.14;58.75
77871;BME280;67067;46.850;7.578;2023-07-22T03:21:21;95351.19;;;14.13;58.54
77871;BME280;67067;46.850;7.578;2023-07-22T03:22:22;95348.81;;;14.12;58.73
77871;BME280;67067;46.850;7.578;2023-07-22T03:23:24;95350.66;;;14.11;58.81
77871;BME280;67067;46.850;7.578;2023-07-22T03:24:28;95348.28;;;14.10;58.46
77871;BME280;67067;46.850;7.578;2023-07-22T03:25:29;95352.78;;;14.09;58.65
77871;BME280;67067;46.850;7.578;2023-07-22T03:26:31;95358.66;;;14.06;58.69
77871;BME280;67067;46.850;7.578;2023-07-22T03:27:35;95355.22;;;14.06;58.85
77871;BME280;67067;46.850;7.578;2023-07-22T03:28:37;95348.56;;;14.03;58.58
77871;BME280;67067;46.850;7.578;2023-07-22T03:29:39;95353.06;;;14.02;58.77
77871;BME280;67067;46.850;7.578;2023-07-22T03:30:41;95355.19;;;14.00;58.78
77871;BME280;67067;46.850;7.578;2023-07-22T03:31:42;95355.19;;;14.00;58.89
77871;BME280;67067;46.850;7.578;2023-07-22T03:32:44;95355.19;;;14.00;58.74
77871;BME280;67067;46.850;7.578;2023-07-22T03:33:46;95353.59;;;13.99;58.57
77871;BME280;67067;46.850;7.578;2023-07-22T03:34:52;95354.97;;;13.97;58.70
77871;BME280;67067;46.850;7.578;2023-07-22T03:35:56;95357.88;;;13.95;58.68
77871;BME280;67067;46.850;7.578;2023-07-22T03:36:57;95354.69;;;13.93;58.47
77871;BME280;67067;46.850;7.578;2023-07-22T03:38:00;95348.06;;;13.91;58.62
77871;BME280;67067;46.850;7.578;2023-07-22T03:39:01;95345.94;;;13.87;58.70
77871;BME280;67067;46.850;7.578;2023-07-22T03:40:05;95350.44;;;13.87;58.84
77871;BME280;67067;46.850;7.578;2023-07-22T03:41:13;95348.06;;;13.85;58.71
77871;BME280;67067;46.850;7.578;2023-07-22T03:42:17;95353.16;;;13.71;59.38
77871;BME280;67067;46.850;7.578;2023-07-22T03:43:18;95352.34;;;13.76;59.00
77871;BME280;67067;46.850;7.578;2023-07-22T03:44:20;95359.28;;;13.77;59.11
77871;BME280;67067;46.850;7.578;2023-07-22T03:45:22;95352.59;;;13.80;59.22
77871;BME280;67067;46.850;7.578;2023-07-22T03:46:24;95356.84;;;13.81;59.21
77871;BME280;67067;46.850;7.578;2023-07-22T03:47:28;95353.94;;;13.82;58.84
77871;BME280;67067;46.850;7.578;2023-07-22T03:48:30;95354.47;;;13.84;59.12
77871;BME280;67067;46.850;7.578;2023-07-22T03:49:31;95356.84;;;13.86;58.92
77871;BME280;67067;46.850;7.578;2023-07-22T03:50:33;95357.91;;;13.85;58.83
77871;BME280;67067;46.850;7.578;2023-07-22T03:51:34;95356.06;;;13.80;59.12
77871;BME280;67067;46.850;7.578;2023-07-22T03:52:36;95358.97;;;13.84;59.09
77871;BME280;67067;46.850;7.578;2023-07-22T03:53:38;95361.38;;;13.85;58.87
77871;BME280;67067;46.850;7.578;2023-07-22T03:54:39;95362.16;;;13.86;59.05
77871;BME280;67067;46.850;7.578;2023-07-22T03:55:41;95364.81;;;13.86;58.80
77871;BME280;67067;46.850;7.578;2023-07-22T03:56:45;95359.50;;;13.86;58.98
77871;BME280;67067;46.850;7.578;2023-07-22T03:57:49;95369.06;;;13.87;58.79
77871;BME280;67067;46.850;7.578;2023-07-22T03:58:51;95364.81;;;13.86;58.87
77871;BME280;67067;46.850;7.578;2023-07-22T03:59:54;95364.56;;;13.82;58.94
77871;BME280;67067;46.850;7.578;2023-07-22T04:00:55;95364.56;;;13.82;58.99
77871;BME280;67067;46.850;7.578;2023-07-22T04:01:57;95369.38;;;13.80;59.16
77871;BME280;67067;46.850;7.578;2023-07-22T04:02:58;95371.22;;;13.80;59.08
77871;BME280;67067;46.850;7.578;2023-07-22T04:04:00;95367.78;;;13.74;59.76
77871;BME280;67067;46.850;7.578;2023-07-22T04:05:02;95369.91;;;13.67;59.78
77871;BME280;67067;46.850;7.578;2023-07-22T04:06:04;95370.94;;;13.71;59.57
77871;BME280;67067;46.850;7.578;2023-07-22T04:07:11;95372.28;;;13.73;59.50
77871;BME280;67067;46.850;7.578;2023-07-22T04:08:13;95375.47;;;13.76;59.54
77871;BME280;67067;46.850;7.578;2023-07-22T04:09:17;95376.00;;;13.78;59.33
77871;BME280;67067;46.850;7.578;2023-07-22T04:10:21;95378.94;;;13.81;59.21
77871;BME280;67067;46.850;7.578;2023-07-22T04:11:22;95374.16;;;13.83;59.21
77871;BME280;67067;46.850;7.578;2023-07-22T04:12:24;95374.69;;;13.85;59.27
77871;BME280;67067;46.850;7.578;2023-07-22T04:13:28;95374.41;;;13.87;59.01
77871;BME280;67067;46.850;7.578;2023-07-22T04:14:30;95373.31;;;13.88;59.07
77871;BME280;67067;46.850;7.578;2023-07-22T04:15:33;95372.53;;;13.87;58.98
77871;BME280;67067;46.850;7.578;2023-07-22T04:16:34;95379.47;;;13.89;58.97
77871;BME280;67067;46.850;7.578;2023-07-22T04:17:36;95379.19;;;13.90;59.16
77871;BME280;67067;46.850;7.578;2023-07-22T04:18:38;95382.38;;;13.92;59.17
77871;BME280;67067;46.850;7.578;2023-07-22T04:19:39;95380.50;;;13.93;59.29
77871;BME280;67067;46.850;7.578;2023-07-22T04:20:41;95382.88;;;13.94;59.19
77871;BME280;67067;46.850;7.578;2023-07-22T04:21:43;95373.31;;;13.98;59.20
77871;BME280;67067;46.850;7.578;2023-07-22T04:22:44;95379.16;;;14.00;59.25
77871;BME280;67067;46.850;7.578;2023-07-22T04:23:46;95377.03;;;14.02;59.01
77871;BME280;67067;46.850;7.578;2023-07-22T04:24:48;95375.94;;;14.04;59.37
77871;BME280;67067;46.850;7.578;2023-07-22T04:25:54;95376.75;;;14.04;59.29
77871;BME280;67067;46.850;7.578;2023-07-22T04:27:00;95378.34;;;14.05;59.25
77871;BME280;67067;46.850;7.578;2023-07-22T04:28:02;95377.28;;;14.06;59.39
77871;BME280;67067;46.850;7.578;2023-07-22T04:29:03;95378.59;;;14.04;59.25
77871;BME280;67067;46.850;7.578;2023-07-22T04:30:05;95381.81;;;14.00;59.47
77871;BME280;67067;46.850;7.578;2023-07-22T04:31:07;95384.50;;;13.85;60.10
77871;BME280;67067;46.850;7.578;2023-07-22T04:32:10;95383.44;;;13.91;59.88
77871;BME280;67067;46.850;7.578;2023-07-22T04:33:12;95392.75;;;13.89;60.01
77871;BME280;67067;46.850;7.578;2023-07-22T04:34:15;95391.94;;;13.93;59.82
77871;BME280;67067;46.850;7.578;2023-07-22T04:35:17;95379.69;;;13.97;59.56
77871;BME280;67067;46.850;7.578;2023-07-22T04:36:19;95399.38;;;14.01;59.40
77871;BME280;67067;46.850;7.578;2023-07-22T04:37:20;95392.19;;;14.07;59.63
77871;BME280;67067;46.850;7.578;2023-07-22T04:38:22;95394.06;;;14.12;59.56
77871;BME280;67067;46.850;7.578;2023-07-22T04:39:23;95393.75;;;14.19;59.45
77871;BME280;67067;46.850;7.578;2023-07-22T04:40:25;95400.94;;;14.23;59.42
77871;BME280;67067;46.850;7.578;2023-07-22T04:41:27;95397.44;;;14.28;59.22
77871;BME280;67067;46.850;7.578;2023-07-22T04:42:28;95399.88;;;14.29;59.04
77871;BME280;67067;46.850;7.578;2023-07-22T04:43:30;95405.44;;;14.28;59.27
77871;BME280;67067;46.850;7.578;2023-07-22T04:44:32;95397.97;;;14.35;59.04
77871;BME280;67067;46.850;7.578;2023-07-22T04:45:34;95400.91;;;14.39;58.96
77871;BME280;67067;46.850;7.578;2023-07-22T04:46:35;95411.03;;;14.42;59.05
77871;BME280;67067;46.850;7.578;2023-07-22T04:47:37;95401.97;;;14.43;59.08
77871;BME280;67067;46.850;7.578;2023-07-22T04:48:40;95405.16;;;14.45;59.10
77871;BME280;67067;46.850;7.578;2023-07-22T04:49:42;95403.56;;;14.44;59.14
77871;BME280;67067;46.850;7.578;2023-07-22T04:50:43;95404.09;;;14.41;58.95
77871;BME280;67067;46.850;7.578;2023-07-22T04:51:46;95407.84;;;14.40;58.83
77871;BME280;67067;46.850;7.578;2023-07-22T04:52:48;95409.97;;;14.38;59.13
77871;BME280;67067;46.850;7.578;2023-07-22T04:53:49;95406.22;;;14.44;58.88
77871;BME280;67067;46.850;7.578;2023-07-22T04:54:56;95409.94;;;14.48;59.07
77871;BME280;67067;46.850;7.578;2023-07-22T04:55:58;95412.31;;;14.55;59.10
77871;BME280;67067;46.850;7.578;2023-07-22T04:57:00;95401.13;;;14.58;58.62
77871;BME280;67067;46.850;7.578;2023-07-22T04:58:01;95406.69;;;14.62;58.43
77871;BME280;67067;46.850;7.578;2023-07-22T04:59:04;95416.78;;;14.65;58.47
77871;BME280;67067;46.850;7.578;2023-07-22T05:00:06;95406.41;;;14.68;58.59
77871;BME280;67067;46.850;7.578;2023-07-22T05:01:10;95404.25;;;14.70;58.37
77871;BME280;67067;46.850;7.578;2023-07-22T05:02:12;95406.09;;;14.75;58.05
77871;BME280;67067;46.850;7.578;2023-07-22T05:03:14;95409.28;;;14.77;58.01
77871;BME280;67067;46.850;7.578;2023-07-22T05:04:15;95420.50;;;14.74;58.02
77871;BME280;67067;46.850;7.578;2023-07-22T05:05:17;95407.19;;;14.69;58.14
77871;BME280;67067;46.850;7.578;2023-07-22T05:06:19;95413.06;;;14.66;58.12
77871;BME280;67067;46.850;7.578;2023-07-22T05:07:20;95414.13;;;14.65;58.21
77871;BME280;67067;46.850;7.578;2023-07-22T05:08:22;95421.59;;;14.63;57.91
77871;BME280;67067;46.850;7.578;2023-07-22T05:09:24;95416.25;;;14.63;58.16
77871;BME280;67067;46.850;7.578;2023-07-22T05:10:28;95414.66;;;14.62;58.23
77871;BME280;67067;46.850;7.578;2023-07-22T05:11:30;95417.84;;;14.64;58.28
77871;BME280;67067;46.850;7.578;2023-07-22T05:12:32;95418.91;;;14.68;58.05
77871;BME280;67067;46.850;7.578;2023-07-22T05:13:33;95422.91;;;14.70;58.07
77871;BME280;67067;46.850;7.578;2023-07-22T05:14:35;95418.09;;;14.72;58.15
77871;BME280;67067;46.850;7.578;2023-07-22T05:15:37;95422.63;;;14.72;58.10
77871;BME280;67067;46.850;7.578;2023-07-22T05:16:41;95428.50;;;14.74;57.91
77871;BME280;67067;46.850;7.578;2023-07-22T05:17:45;95431.16;;;14.69;58.06
77871;BME280;67067;46.850;7.578;2023-07-22T05:18:48;95423.72;;;14.71;57.98
77871;BME280;67067;46.850;7.578;2023-07-22T05:19:49;95431.94;;;14.74;58.13
77871;BME280;67067;46.850;7.578;2023-07-22T05:20:53;95420.47;;;14.79;58.12
77871;BME280;67067;46.850;7.578;2023-07-22T05:21:55;95421.22;;;14.85;58.17
77871;BME280;67067;46.850;7.578;2023-07-22T05:22:57;95423.88;;;14.90;57.95
77871;BME280;67067;46.850;7.578;2023-07-22T05:23:59;95426.78;;;14.94;57.78
77871;BME280;67067;46.850;7.578;2023-07-22T05:25:00;95427.31;;;14.96;57.68
77871;BME280;67067;46.850;7.578;2023-07-22T05:26:02;95423.56;;;14.97;57.72
77871;BME280;67067;46.850;7.578;2023-07-22T05:27:03;95424.09;;;14.99;57.67
77871;BME280;67067;46.850;7.578;2023-07-22T05:28:10;95412.59;;;15.03;57.59
77871;BME280;67067;46.850;7.578;2023-07-22T05:29:12;95430.44;;;15.08;57.63
77871;BME280;67067;46.850;7.578;2023-07-22T05:30:13;95416.59;;;15.06;57.49
77871;BME280;67067;46.850;7.578;2023-07-22T05:31:33;95423.00;;;15.05;57.31
77871;BME280;67067;46.850;7.578;2023-07-22T05:32:35;95422.44;;;15.08;57.35
77871;BME280;67067;46.850;7.578;2023-07-22T05:33:36;95422.44;;;15.13;57.60